• Join FlightAware (Why Join?)
  • Login
  • US Flag 
11:28PM EST


 

Airport Tracker/Info


-or-


 

Live Flight TrackerFlight Track Log ✈ N523JM ✈ 23-Sep-2013 ✈ KOSU - KTEB

Flight Track Log - Related Links

Times and Time Zones

All times are in EDT time to prevent confusion due to time zone crossing. See the N523JM flight status page for this flight to view local times or setup timezone preferences in your user account.

Time Position Orientation Groundspeed Altitude Reporting Facility
EDT Latitude Longitude Course Direction KTS MPH feet Rate Location/Type
09:29AM 40.0769 -83.0942 263° West 169 194 1,400  Level Indianapolis Center
09:30AM 40.0706 -83.1614 263° West 221 254 3,000 1,140 Climbing Indianapolis Center
09:31AM 40.0731 -83.1919 276° West 226 260 3,000  Level Indianapolis Center
09:31AM 40.1056 -83.2331 316° Northwest 267 307 3,000  Level Indianapolis Center
09:32AM 40.1286 -83.2381 351° North 247 284 3,000 780 Level Indianapolis Center
09:32AM 40.1750 -83.2333 North 263 303 3,800 1,740 Climbing Indianapolis Center
09:33AM 40.1961 -83.2153 33° Northeast 257 296 4,800 2,820 Climbing Indianapolis Center
09:33AM 40.2283 -83.1819 38° Northeast 285 328 6,400 3,720 Climbing Indianapolis Center
09:34AM 40.2647 -83.1436 39° Northeast 264 304 8,600 2,700 Climbing Indianapolis Center
09:35AM 40.3294 -83.0872 34° Northeast 278 320 10,900 1,980 Climbing Indianapolis Center
09:36AM 40.4083 -83.0189 33° Northeast 336 387 12,800 1,800 Climbing Indianapolis Center
09:37AM 40.4919 -82.9436 34° Northeast 362 417 14,700 1,980 Climbing Indianapolis Center
09:38AM 40.5922 -82.8528 35° Northeast 380 437 17,000 1,980 Climbing Indianapolis Center
09:39AM 40.6825 -82.7736 34° Northeast 387 445 18,800 1,740 Climbing Indianapolis Center
09:40AM 40.7733 -82.6936 34° Northeast 388 447 20,700 1,860 Climbing Indianapolis Center
09:41AM 40.8622 -82.6131 34° Northeast 385 443 22,700 1,920 Climbing Indianapolis Center
09:42AM 40.9103 -82.4847 64° Northeast 398 458 24,700 1,080 Climbing Indianapolis Center
09:43AM 40.9431 -82.3392 73° East 408 470 25,000 480 Climbing Indianapolis Center
09:44AM 40.9783 -82.1808 74° East 439 505 25,800 1,080 Climbing Indianapolis Center
09:45AM 41.0142 -82.0239 73° East 444 511 27,300 1,500 Climbing Indianapolis Center
09:46AM 41.0536 -81.8428 74° East 440 506 29,000 1,500 Climbing Indianapolis Center
09:47AM 41.0872 -81.6897 74° East 436 502 30,400 1,260 Climbing Indianapolis Center
09:48AM 41.1208 -81.5389 73° East 431 496 31,700 1,140 Climbing Indianapolis Center
09:49AM 41.1542 -81.3864 74° East 432 497 32,800 960 Climbing Indianapolis Center
09:50AM 41.1881 -81.2317 74° East 436 502 33,800 1,020 Climbing Indianapolis Center
09:51AM 41.2269 -81.0525 74° East 434 499 35,000 1,080 Climbing Cleveland Center
09:53AM 41.2594 -80.8994 74° East 430 495 36,100 960 Climbing Cleveland Center
09:54AM 41.2919 -80.7481 74° East 426 490 37,000 420 Climbing Cleveland Center
09:55AM 41.3236 -80.5961 74° East 424 488 37,000  Level Cleveland Center
09:56AM 41.3578 -80.4353 74° East 445 512 37,000  Level Cleveland Center
09:57AM 41.3986 -80.2406 74° East 462 532 37,000  Level Cleveland Center
09:58AM 41.4350 -80.0697 74° East 475 547 37,000  Level Cleveland Center
09:59AM 41.4669 -79.9125 75° East 483 556 37,000  Level Cleveland Center
10:00AM 41.5097 -79.7022 75° East 492 566 37,000  Level Cleveland Center
10:01AM 41.5458 -79.5247 75° East 495 570 37,000  Level Cleveland Center
10:02AM 41.5800 -79.3467 76° East 497 572 37,000  Level Cleveland Center
10:03AM 41.6150 -79.1719 75° East 490 564 37,000  Level Cleveland Center
10:04AM 41.6508 -78.9878 75° East 495 570 37,000  Level Cleveland Center
10:05AM 41.6836 -78.8156 76° East 494 568 37,000 -60 Level Cleveland Center
10:06AM 41.7250 -78.6025 75° East 493 567 36,900 -300 Descending Cleveland Center
10:07AM 41.7594 -78.4256 75° East 492 566 36,400 -480 Descending Cleveland Center
10:08AM 41.7919 -78.2458 76° East 496 571 36,000 -480 Descending Cleveland Center
10:09AM 41.8244 -78.0678 76° East 494 568 35,500 -480 Descending Cleveland Center
10:10AM 41.8556 -77.8872 77° East 497 572 35,000 -300 Descending Cleveland Center
10:11AM 41.8258 -77.7008 102° East 510 587 35,000  Level Cleveland Center
10:12AM 41.7692 -77.4883 110° East 512 589 35,000  Level Cleveland Center
10:13AM 41.7211 -77.3089 110° East 516 594 35,000 -480 Level Cleveland Center
10:14AM 41.6725 -77.1281 110° East 519 597 34,100 -1,200 Descending Cleveland Center
10:15AM 41.6222 -76.9456 110° East 524 603 32,600 -1,500 Descending Cleveland Center
10:16AM 41.5717 -76.7583 110° East 526 605 31,100 -1,440 Descending Cleveland Center
10:17AM 41.5222 -76.5786 110° East 519 597 29,700 -1,920 Descending Cleveland Center
10:18AM 41.4661 -76.3764 110° East 508 585 27,200 -2,580 Descending Cleveland Center
10:19AM 41.4181 -76.2069 111° Southeast 494 568 24,400 -2,760 Descending Cleveland Center
10:20AM 41.3719 -76.0425 110° East 481 554 21,500 -2,700 Descending Cleveland Center
10:22AM 41.3169 -75.8508 111° Southeast 463 533 18,700 -2,400 Descending New York Center
10:23AM 41.2736 -75.6958 110° East 458 527 16,600 -1,920 Descending New York Center
10:24AM 41.2311 -75.5603 113° Southeast 443 510 14,900 -1,620 Descending New York Center
10:25AM 41.1753 -75.3964 114° Southeast 443 510 13,400 -1,980 Descending New York Center
10:26AM 41.1283 -75.2583 114° Southeast 428 493 11,000 -2,340 Descending New York Center
10:27AM 41.0892 -75.1372 113° Southeast 396 456 8,800 -2,100 Descending New York Center
10:28AM 41.0572 -75.0444 115° Southeast 329 379 6,900 -1,440 Descending New York Center
10:29AM 41.0231 -74.9514 116° Southeast 292 336 6,000 -600 Descending New York Center
10:30AM 40.9850 -74.8447 115° Southeast 286 329 5,700 -900 Descending New York Center
10:31AM 40.9500 -74.7711 122° Southeast 274 315 4,300 -960 Descending New York Center
10:32AM 40.9114 -74.6836 120° Southeast 258 297 3,800 -660 Descending New York Center
10:33AM 40.8803 -74.6133 120° Southeast 253 291 3,000 -420 Descending New York Center
10:34AM 40.8392 -74.5314 124° Southeast 248 285 3,000  Level New York Center
10:35AM 40.8042 -74.4583 122° Southeast 248 285 3,000 -60 Level New York Center
10:36AM 40.7608 -74.3739 124° Southeast 248 285 2,900 -480 Descending New York Center
10:37AM 40.7256 -74.3008 122° Southeast 242 278 2,100 -480 Descending New York Center
10:38AM 40.7339 -74.2300 81° East 175 201 2,000 -180 Descending New York Center
10:39AM 40.7664 -74.1878 45° Northeast 175 201 1,800 -300 Descending New York Center
10:40AM 40.8033 -74.1375 46° Northeast 175 201 1,500 -540 Descending New York Center
10:41AM 40.8089 -74.0803 83° East 156 180 800 -660 Descending New York Center
10:42AM 40.8325 -74.0650 26° Northeast 117 135 200 -600 Descending New York Center
10:43AM 40.8500 -74.0500 65° Northeast  Level FlightAware Approximate
10:50AM 40.8501 -74.0608 65° Northeast  Level Estimated